Terminal Aerodrome Forecast
Issued by NWS Bismarck, ND

Home | Current Version | Previous Version | Text Only | Print | Product List | Glossary Off
Versions: 1 2 3 4 5 6 7 8 9 10 11 12 13 14 15

000
FTUS43 KBIS 152300
TAFISN
TAF
KISN 152338Z 1600/1624 33008KT P6SM BKN018 OVC021
     FM160600 36005KT P6SM OVC020
     FM161400 13005KT P6SM SCT020=

USA.gov is the U.S. government's official web portal to all federal, state and local government web resources and services.